Terminal Aerodrome Forecast
Issued by NWS

Home | Current Version | Previous Version | Text Only | Print | Product List | Glossary On
Versions: 1 2 3 4 5 6 7 8 9 10 11 12 13 14 15
171
FTUS45 KRIW 200521
TAFJAC
TAF
KJAC 200521Z 2006/2106 02006KT P6SM FEW010 BKN120
     FM201500 19008KT P6SM VCSH BKN040
     FM201900 19010KT P6SM -SN SCT015 BKN025
     FM202100 19011G18KT 3SM -SN SCT008 OVC020
     FM210500 20010KT 5SM -SN SCT015 BKN025
      AMD LTD TO CLD VIS AND WIND=

USA.gov is the U.S. government's official web portal to all federal, state and local government web resources and services.